Huvudsida
METAR-TAF:

METAR-TAF

Flygplatser :

Pärnu flygplats

Pärnu, Estland

latitud: 58-25-09N, longitud: 024-28-22E, höjd: 14 m

Aktuellt väderrapport

Denna rapport gjordes för 32 minuter sedan, klockan 08:20 UTC
Vind 2 kt varierande vindriktning
Temperatur 16°C
Fuktighet 59%
Tryck 1018 hPa
Sikt 10 km eller mer

METAR: EEPU 290820Z AUTO VRB02KT 9999 FEW027/// SCT210/// 16/08 Q1018

Tid: 11:52 (08:52 UTC)

Väderprognos

Denna rapport gjordes för 23 timmar och 52 minuter sedan, klockan 09:00 UTC
Prognos gäller från 28 kl. 10 UTC till 28 kl. 16 UTC
Vind 16 kt från syd/sydväst
Sikt 10 km eller mer
Inga moln under 1 500 m eller inga cumulonimbus
Sannolikhet 40% :
Temporärt
från 28 kl. 10 UTC till 28 kl. 13 UTC
Vind 18 kt från syd i byarna ända upp till 30 kt
Blir
från 28 kl. 16 UTC till 28 kl. 18 UTC
Vind 14 kt från väst

TAF: EEPU 280900Z 2810/2816 20016KT CAVOK PROB40 TEMPO 2810/2813 19018G30KT BECMG 2816/2818 26014KT

Aktuella väderrapporter och prognoser från 4000 flygplatser (METAR- och TAF-rapporter).

De tillgängliga stationerna syns som gula och röda prickar på kartan.

För musen över prickarna för att se namnen på stationerna.

Klicka sedan för att få väderrapporter och prognoser.

För att ändra kartan: Klicka på de gröna knapparna med ett svart kors på för att zooma in; den gröna knappen med ett streck på för att zooma ut; eller på de gröna pilarna för angränsande kartor.


METAR-TAF: